Time;durP1;ratioP1;P1;durP2;ratioP2;P2;SDS_P1;SDS_P2;PMS_P1;PMS_P2;Temp;Humidity;BMP_temperature;BMP_pressure;BME280_temperature;BME280_humidity;BME280_pressure;Samples;Min_cycle;Max_cycle;Signal;HPM_P1;HPM_P2
2021/09/18 00:02:03;;;;;;;7.13;6.67;;;21.70;93.60;;;;;;4884593;29;20459;-78
2021/09/18 00:04:30;;;;;;;7.47;6.97;;;21.70;93.70;;;;;;4897046;29;20491;-75
2021/09/18 00:06:58;;;;;;;9.57;8.97;;;21.70;93.50;;;;;;4897743;29;20431;-74
2021/09/18 00:09:25;;;;;;;9.07;8.47;;;21.90;93.50;;;;;;4898672;29;20771;-79
2021/09/18 00:11:52;;;;;;;14.97;13.67;;;22.00;93.30;;;;;;4908698;29;20476;-73
2021/09/18 00:14:23;;;;;;;23.67;21.73;;;22.00;93.40;;;;;;4896979;29;20546;-79
2021/09/18 00:16:51;;;;;;;18.23;16.67;;;22.00;93.20;;;;;;4900831;29;20424;-78
2021/09/18 00:19:18;;;;;;;16.30;14.87;;;22.10;93.20;;;;;;4900367;29;20530;-75
2021/09/18 00:21:46;;;;;;;22.57;20.37;;;22.10;92.90;;;;;;4914680;29;20942;-77
2021/09/18 00:24:13;;;;;;;7.27;6.77;;;22.10;93.00;;;;;;4901097;29;20610;-77
2021/09/18 00:26:40;;;;;;;5.07;4.67;;;22.20;93.20;;;;;;4904503;29;20442;-78
2021/09/18 00:29:08;;;;;;;4.97;4.67;;;22.30;93.20;;;;;;4901123;29;20546;-77
2021/09/18 00:31:35;;;;;;;10.37;9.70;;;22.30;93.30;;;;;;4908888;29;20455;-77
2021/09/18 00:34:03;;;;;;;7.87;7.37;;;22.30;93.10;;;;;;4918752;29;20503;-77
2021/09/18 00:36:30;;;;;;;6.53;6.13;;;22.20;92.80;;;;;;4900460;29;20423;-77
2021/09/18 00:38:57;;;;;;;15.17;13.80;;;22.10;92.80;;;;;;4912414;29;20434;-82
2021/09/18 00:41:25;;;;;;;9.33;8.73;;;22.10;93.00;;;;;;4900521;29;20605;-77
2021/09/18 00:43:54;;;;;;;8.77;8.27;;;22.20;92.70;;;;;;4900832;29;20515;-76
2021/09/18 00:46:23;;;;;;;5.20;4.80;;;22.20;92.80;;;;;;4901169;29;20761;-73
2021/09/18 00:48:50;;;;;;;6.40;5.93;;;22.20;92.80;;;;;;4901342;29;20436;-78
2021/09/18 00:51:19;;;;;;;6.67;6.00;;;22.20;92.50;;;;;;4902727;29;20189;-77
2021/09/18 00:53:48;;;;;;;12.97;12.17;;;22.30;92.80;;;;;;4904182;29;20773;-76
2021/09/18 00:56:17;;;;;;;6.27;5.87;;;22.30;92.40;;;;;;4900992;29;20452;-77
2021/09/18 00:58:45;;;;;;;5.67;5.33;;;22.40;92.80;;;;;;4906405;29;21117;-81
2021/09/18 01:01:12;;;;;;;5.50;5.20;;;22.40;92.40;;;;;;4900427;29;20193;-80
2021/09/18 01:03:44;;;;;;;7.97;7.43;;;22.50;92.60;;;;;;4903147;29;20193;-79
2021/09/18 01:06:13;;;;;;;4.70;4.30;;;22.50;92.70;;;;;;4900267;29;20264;-78
2021/09/18 01:08:42;;;;;;;6.27;5.80;;;22.50;92.90;;;;;;4891395;29;20200;-77
2021/09/18 01:11:10;;;;;;;6.93;6.43;;;22.60;93.00;;;;;;4896996;29;20237;-80
2021/09/18 01:13:37;;;;;;;5.23;4.83;;;22.70;92.50;;;;;;4908131;29;20243;-77
2021/09/18 01:16:05;;;;;;;6.47;5.87;;;22.70;92.40;;;;;;4901379;29;20189;-73
2021/09/18 01:18:32;;;;;;;4.03;3.70;;;22.80;92.40;;;;;;4903417;29;20220;-78
2021/09/18 01:20:59;;;;;;;5.50;5.00;;;22.90;92.00;;;;;;4908452;29;20658;-79
2021/09/18 01:23:27;;;;;;;7.37;6.77;;;22.80;91.70;;;;;;4916513;29;20314;-77
2021/09/18 01:25:55;;;;;;;7.33;6.83;;;22.80;91.80;;;;;;4899319;29;20640;-80
2021/09/18 01:28:24;;;;;;;5.57;5.17;;;22.90;91.70;;;;;;4904780;29;20431;-75
2021/09/18 01:30:52;;;;;;;5.03;4.63;;;22.90;91.60;;;;;;4899809;29;20428;-81
2021/09/18 01:33:20;;;;;;;7.20;6.80;;;22.90;91.80;;;;;;4899925;29;20249;-80
2021/09/18 01:35:47;;;;;;;8.07;7.47;;;23.00;91.60;;;;;;4901440;29;20181;-81
2021/09/18 01:38:15;;;;;;;5.13;4.73;;;22.90;91.70;;;;;;4900719;29;20189;-76
2021/09/18 01:40:45;;;;;;;7.20;6.60;;;23.00;91.90;;;;;;4899472;29;20182;-79
2021/09/18 01:43:13;;;;;;;6.37;5.73;;;23.10;91.50;;;;;;4899981;29;20298;-79
2021/09/18 01:45:42;;;;;;;7.07;6.23;;;23.30;91.50;;;;;;4899345;29;20432;-80
2021/09/18 01:48:12;;;;;;;8.80;8.00;;;23.40;91.10;;;;;;4899087;29;20178;-77
2021/09/18 01:50:57;;;;;;;7.80;7.00;;;23.60;91.30;;;;;;4898576;29;20249;-78
2021/09/18 01:53:25;;;;;;;11.30;10.30;;;23.70;91.10;;;;;;4897367;29;20201;-77
2021/09/18 01:55:53;;;;;;;6.97;6.23;;;23.70;91.40;;;;;;4902453;29;20197;-79
2021/09/18 01:58:21;;;;;;;6.63;5.30;;;23.80;91.00;;;;;;4899145;29;20176;-78
2021/09/18 02:00:55;;;;;;;7.10;6.33;;;23.70;90.90;;;;;;4898637;29;20197;-80
2021/09/18 02:03:22;;;;;;;7.43;6.70;;;23.70;90.60;;;;;;4904617;29;20188;-80
2021/09/18 02:05:50;;;;;;;7.90;7.13;;;23.70;90.70;;;;;;4906700;29;20248;-78
2021/09/18 02:08:17;;;;;;;6.67;5.63;;;23.70;91.20;;;;;;4899822;29;20272;-78
2021/09/18 02:10:45;;;;;;;6.93;6.17;;;23.70;91.10;;;;;;4899280;29;20551;-74
2021/09/18 02:13:12;;;;;;;11.43;10.47;;;23.70;91.20;;;;;;4908201;29;20265;-79
2021/09/18 02:15:40;;;;;;;10.07;6.97;;;23.80;91.10;;;;;;4917028;29;20187;-75
2021/09/18 02:18:09;;;;;;;12.77;11.50;;;23.90;90.70;;;;;;4898333;29;20245;-76
2021/09/18 02:20:37;;;;;;;8.27;7.47;;;24.00;90.80;;;;;;4906836;29;20191;-77
2021/09/18 02:23:06;;;;;;;7.93;7.07;;;24.30;90.70;;;;;;4904444;29;20196;-80
2021/09/18 02:25:34;;;;;;;19.47;17.33;;;24.40;90.40;;;;;;4898096;29;20681;-78
2021/09/18 02:28:02;;;;;;;17.50;14.67;;;24.40;90.60;;;;;;4898939;29;20213;-76
2021/09/18 02:30:32;;;;;;;8.67;7.57;;;24.30;90.30;;;;;;4898478;29;20201;-80
2021/09/18 02:33:00;;;;;;;17.37;14.47;;;24.30;90.50;;;;;;4904931;29;20181;-79
2021/09/18 02:35:29;;;;;;;9.60;7.53;;;24.40;90.40;;;;;;4903790;29;20280;-77
2021/09/18 02:37:58;;;;;;;6.33;5.50;;;24.40;90.80;;;;;;4898044;29;20687;-69
2021/09/18 02:40:26;;;;;;;7.90;7.13;;;24.50;90.60;;;;;;4895847;29;21253;-73
2021/09/18 02:42:57;;;;;;;6.73;5.73;;;24.70;90.70;;;;;;4897346;29;20190;-74
2021/09/18 02:45:25;;;;;;;6.43;5.43;;;24.80;90.40;;;;;;4896361;29;20193;-68
2021/09/18 02:47:53;;;;;;;9.13;8.30;;;24.90;90.20;;;;;;4898805;29;20193;-69
2021/09/18 02:50:21;;;;;;;6.10;4.93;;;25.00;90.10;;;;;;4901628;29;20188;-66
2021/09/18 02:52:49;;;;;;;16.67;13.43;;;25.00;90.10;;;;;;4898029;29;20181;-67
2021/09/18 02:55:17;;;;;;;34.13;30.57;;;24.80;90.20;;;;;;4896529;29;20582;-66
2021/09/18 02:57:45;;;;;;;8.57;7.40;;;24.80;90.30;;;;;;4897622;29;20734;-67
2021/09/18 03:00:13;;;;;;;10.70;9.03;;;24.80;90.20;;;;;;4897854;29;20190;-67
2021/09/18 03:02:41;;;;;;;11.23;9.10;;;24.60;90.40;;;;;;4897952;29;20178;-71
2021/09/18 03:05:10;;;;;;;8.90;8.00;;;24.50;90.70;;;;;;4897440;29;20187;-70
2021/09/18 03:07:37;;;;;;;19.60;16.23;;;24.40;90.70;;;;;;4898413;29;20268;-67
2021/09/18 03:10:06;;;;;;;18.87;16.33;;;24.30;90.90;;;;;;4897357;29;20316;-67
2021/09/18 03:12:33;;;;;;;14.70;11.93;;;24.30;91.00;;;;;;4898162;29;20196;-68
2021/09/18 03:15:01;;;;;;;10.43;9.40;;;24.20;91.20;;;;;;4897353;29;20591;-76
2021/09/18 03:17:28;;;;;;;10.20;9.17;;;24.10;91.50;;;;;;4897504;29;20653;-73
2021/09/18 03:19:56;;;;;;;12.77;11.47;;;24.00;91.60;;;;;;4896682;29;20187;-74
2021/09/18 03:22:23;;;;;;;6.70;5.67;;;24.00;91.40;;;;;;4897531;29;20609;-66
2021/09/18 03:24:51;;;;;;;7.33;6.63;;;23.90;91.70;;;;;;4895344;29;20528;-68
2021/09/18 03:27:19;;;;;;;6.53;5.27;;;23.90;91.80;;;;;;4897113;29;20656;-77
2021/09/18 03:29:46;;;;;;;10.87;9.83;;;23.90;91.90;;;;;;4897111;29;20671;-72
2021/09/18 03:32:13;;;;;;;8.97;8.07;;;23.90;92.40;;;;;;4895795;29;20237;-73
2021/09/18 03:34:41;;;;;;;10.47;8.50;;;23.90;92.60;;;;;;4897149;29;20246;-72
2021/09/18 03:37:08;;;;;;;12.13;11.00;;;23.80;92.80;;;;;;4897053;29;20185;-72
2021/09/18 03:39:35;;;;;;;6.53;5.67;;;23.80;93.00;;;;;;4897311;29;20178;-72
2021/09/18 03:42:03;;;;;;;9.00;7.77;;;23.60;95.20;;;;;;4897044;29;20206;-68
2021/09/18 03:44:30;;;;;;;17.43;15.73;;;23.30;97.50;;;;;;4911645;29;20193;-75
2021/09/18 03:46:58;;;;;;;14.23;12.03;;;23.10;99.30;;;;;;4897054;29;20193;-68
2021/09/18 03:49:25;;;;;;;9.63;6.93;;;22.90;99.90;;;;;;4897123;29;20189;-72
2021/09/18 03:51:53;;;;;;;14.07;12.53;;;22.80;99.90;;;;;;4900551;29;20272;-67
2021/09/18 03:54:20;;;;;;;10.13;7.67;;;22.60;99.90;;;;;;4898690;29;20572;-70
2021/09/18 03:56:48;;;;;;;9.90;8.33;;;22.50;99.90;;;;;;4900984;29;20205;-66
2021/09/18 03:59:15;;;;;;;7.43;5.43;;;22.40;99.90;;;;;;4901029;29;20267;-66
2021/09/18 04:01:42;;;;;;;15.87;13.80;;;22.30;99.90;;;;;;4900795;29;20647;-65
2021/09/18 04:04:10;;;;;;;12.77;11.37;;;22.10;99.90;;;;;;4900687;29;20233;-69
2021/09/18 04:06:37;;;;;;;12.93;10.53;;;21.80;99.90;;;;;;4900614;29;20191;-66
2021/09/18 04:09:05;;;;;;;7.93;6.40;;;21.50;99.90;;;;;;4900701;29;20248;-69
2021/09/18 04:11:32;;;;;;;5.43;3.90;;;21.40;99.90;;;;;;4900847;29;20246;-66
2021/09/18 04:13:59;;;;;;;7.07;6.37;;;21.20;99.90;;;;;;4900814;29;20297;-67
2021/09/18 04:16:27;;;;;;;6.73;5.77;;;21.00;99.90;;;;;;4900933;29;20183;-71
2021/09/18 04:18:54;;;;;;;4.13;3.60;;;21.00;99.90;;;;;;4900873;29;20422;-66
2021/09/18 04:21:22;;;;;;;3.03;2.67;;;20.90;99.90;;;;;;4900906;29;20624;-68
2021/09/18 04:23:49;;;;;;;18.43;16.63;;;20.70;99.90;;;;;;4899393;29;20491;-70
2021/09/18 04:26:20;;;;;;;9.23;8.43;;;20.70;99.90;;;;;;4900737;29;20197;-74
2021/09/18 04:28:47;;;;;;;6.37;5.80;;;20.60;99.90;;;;;;4900620;29;20435;-69
2021/09/18 04:31:15;;;;;;;12.37;11.37;;;20.40;99.90;;;;;;4900638;29;20542;-73
2021/09/18 04:33:42;;;;;;;13.10;11.97;;;20.30;99.90;;;;;;4900292;29;20525;-69
2021/09/18 04:36:10;;;;;;;13.37;10.30;;;20.30;99.90;;;;;;4900357;29;20467;-66
2021/09/18 04:38:37;;;;;;;12.70;9.07;;;20.30;99.90;;;;;;4900209;29;20455;-70
2021/09/18 04:41:04;;;;;;;10.20;9.30;;;20.30;99.90;;;;;;4900272;29;20434;-73
2021/09/18 04:43:32;;;;;;;9.27;8.40;;;20.30;99.90;;;;;;4900077;29;20560;-72
2021/09/18 04:45:59;;;;;;;7.60;6.83;;;20.30;99.90;;;;;;4900065;29;20185;-70
2021/09/18 04:48:27;;;;;;;15.03;13.73;;;20.30;99.90;;;;;;4900336;29;20464;-67
2021/09/18 04:50:54;;;;;;;8.33;7.57;;;20.20;99.90;;;;;;4900107;29;20433;-73
2021/09/18 04:53:22;;;;;;;10.77;9.07;;;20.20;99.90;;;;;;4899530;29;20428;-74
2021/09/18 04:55:49;;;;;;;13.87;12.67;;;20.30;99.90;;;;;;4899519;29;20416;-70
2021/09/18 04:58:16;;;;;;;19.00;17.00;;;20.50;99.90;;;;;;4898773;29;20447;-73
2021/09/18 05:00:44;;;;;;;19.57;16.37;;;20.90;99.90;;;;;;4899574;29;20997;-71
2021/09/18 05:03:11;;;;;;;31.57;19.50;;;21.10;99.90;;;;;;4898871;29;20927;-72
2021/09/18 05:05:38;;;;;;;77.47;45.67;;;21.10;99.90;;;;;;4899514;29;20515;-69
2021/09/18 05:08:06;;;;;;;48.23;32.90;;;21.20;99.90;;;;;;4899884;29;20428;-75
2021/09/18 05:10:33;;;;;;;7.23;6.63;;;21.40;99.90;;;;;;4899496;29;20459;-70
2021/09/18 05:13:02;;;;;;;9.40;8.57;;;21.50;99.90;;;;;;4898863;29;20443;-79
2021/09/18 05:15:30;;;;;;;12.57;11.33;;;21.60;99.90;;;;;;4899399;29;20483;-70
2021/09/18 05:17:57;;;;;;;7.33;6.67;;;21.80;99.90;;;;;;4899077;29;20435;-75
2021/09/18 05:20:25;;;;;;;12.90;11.60;;;21.80;99.90;;;;;;4900400;29;20821;-75
2021/09/18 05:22:53;;;;;;;24.70;22.23;;;21.80;99.90;;;;;;4903915;29;20448;-75
2021/09/18 05:25:20;;;;;;;6.00;5.50;;;21.80;99.90;;;;;;4898752;29;20449;-76
2021/09/18 05:27:49;;;;;;;7.40;6.83;;;21.80;99.90;;;;;;4899646;29;20438;-80
2021/09/18 05:30:16;;;;;;;5.63;5.13;;;21.80;99.90;;;;;;4899935;29;20488;-76
2021/09/18 05:32:43;;;;;;;10.80;9.90;;;21.80;99.90;;;;;;4900144;29;20437;-77
2021/09/18 05:35:11;;;;;;;11.13;10.23;;;21.80;99.90;;;;;;4909298;29;21020;-73
2021/09/18 05:37:38;;;;;;;10.47;9.67;;;21.80;99.90;;;;;;4897187;29;20893;-80
2021/09/18 05:40:07;;;;;;;6.67;6.17;;;21.80;99.90;;;;;;4899236;29;20204;-83
2021/09/18 05:42:34;;;;;;;7.67;6.97;;;21.70;99.90;;;;;;4898695;29;20190;-78
2021/09/18 05:45:01;;;;;;;11.30;10.17;;;21.60;99.90;;;;;;4898868;29;20182;-77
2021/09/18 05:47:29;;;;;;;8.67;7.97;;;21.50;99.90;;;;;;4897947;29;20193;-71
2021/09/18 05:49:56;;;;;;;9.00;8.27;;;21.50;99.90;;;;;;4903685;29;20439;-81
2021/09/18 05:52:24;;;;;;;5.40;5.00;;;21.40;99.90;;;;;;4897672;29;20185;-79
2021/09/18 05:54:51;;;;;;;6.70;6.07;;;21.30;99.90;;;;;;4895272;29;20588;-81
2021/09/18 05:57:19;;;;;;;9.77;8.87;;;21.20;99.90;;;;;;4898188;29;20181;-77
2021/09/18 05:59:46;;;;;;;8.97;8.20;;;21.00;99.90;;;;;;4907144;29;20440;-75
2021/09/18 06:02:13;;;;;;;5.30;4.87;;;20.90;99.90;;;;;;4898567;29;20249;-75
2021/09/18 06:04:41;;;;;;;5.27;4.80;;;20.80;99.90;;;;;;4898653;29;20185;-78
2021/09/18 06:07:08;;;;;;;7.57;6.93;;;20.70;99.90;;;;;;4899374;29;20321;-76
2021/09/18 06:09:35;;;;;;;4.87;4.50;;;20.70;99.90;;;;;;4904705;29;20272;-81
2021/09/18 06:12:02;;;;;;;5.10;4.67;;;20.80;99.90;;;;;;4898491;29;20523;-76
2021/09/18 06:14:30;;;;;;;6.67;6.07;;;20.80;99.90;;;;;;4907803;29;20220;-75
2021/09/18 06:16:57;;;;;;;4.77;4.37;;;20.80;99.90;;;;;;4905362;29;20486;-68
2021/09/18 06:19:26;;;;;;;7.23;6.53;;;20.90;99.90;;;;;;4894837;29;20225;-68
2021/09/18 06:21:53;;;;;;;6.30;5.73;;;20.80;99.90;;;;;;4898419;29;20193;-71
2021/09/18 06:24:21;;;;;;;7.10;6.40;;;20.80;99.90;;;;;;4902307;29;20396;-70
2021/09/18 06:26:48;;;;;;;9.07;8.23;;;20.80;99.90;;;;;;4891796;29;20261;-69
2021/09/18 06:29:15;;;;;;;5.33;4.87;;;20.90;99.90;;;;;;4907007;29;20435;-69
2021/09/18 06:31:43;;;;;;;6.87;6.37;;;20.90;99.90;;;;;;4901428;29;20472;-70
2021/09/18 06:34:10;;;;;;;5.20;4.83;;;20.90;99.90;;;;;;4898494;29;20225;-67
2021/09/18 06:36:37;;;;;;;4.37;4.00;;;20.90;99.90;;;;;;4898400;29;20496;-70
2021/09/18 06:39:06;;;;;;;4.20;3.80;;;20.90;99.90;;;;;;4901952;29;20446;-75
2021/09/18 06:41:33;;;;;;;5.97;5.47;;;21.00;99.90;;;;;;4898130;29;20647;-68
2021/09/18 06:44:00;;;;;;;4.17;3.87;;;21.10;99.90;;;;;;4901742;29;20419;-71
2021/09/18 06:46:28;;;;;;;6.23;5.80;;;21.10;99.90;;;;;;4909606;29;20432;-74
2021/09/18 06:48:55;;;;;;;5.80;5.37;;;21.10;99.90;;;;;;4903831;29;20267;-68
2021/09/18 06:51:23;;;;;;;7.93;7.17;;;21.20;99.90;;;;;;4909144;29;20436;-75
2021/09/18 06:53:50;;;;;;;8.27;7.67;;;21.30;99.90;;;;;;4899228;29;20558;-77
2021/09/18 06:56:18;;;;;;;4.43;4.13;;;21.30;99.90;;;;;;4897963;29;20417;-81
2021/09/18 06:58:45;;;;;;;9.20;8.53;;;21.80;99.90;;;;;;4901092;29;20477;-77
2021/09/18 07:01:12;;;;;;;16.30;15.07;;;22.50;99.40;;;;;;4899546;29;20236;-78
2021/09/18 07:03:40;;;;;;;4.67;4.37;;;23.10;98.90;;;;;;4904904;29;20455;-78
2021/09/18 07:06:07;;;;;;;4.27;3.97;;;23.30;96.70;;;;;;4902242;29;20443;-78
2021/09/18 07:08:34;;;;;;;3.10;2.90;;;23.40;95.90;;;;;;4897461;29;20253;-75
2021/09/18 07:11:01;;;;;;;9.80;8.87;;;23.00;95.40;;;;;;4908809;29;20467;-78
2021/09/18 07:13:29;;;;;;;3.23;3.03;;;22.60;96.20;;;;;;4900240;29;20509;-73
2021/09/18 07:15:56;;;;;;;4.63;4.33;;;22.50;96.20;;;;;;4903866;29;20487;-75
2021/09/18 07:18:24;;;;;;;4.20;3.90;;;22.50;96.10;;;;;;4897523;29;20213;-76
2021/09/18 07:20:52;;;;;;;4.17;3.87;;;22.40;96.50;;;;;;4898652;29;20196;-74
2021/09/18 07:23:20;;;;;;;7.10;6.70;;;22.00;96.80;;;;;;4899551;29;20551;-76
2021/09/18 07:25:48;;;;;;;15.73;13.10;;;21.80;97.10;;;;;;4904978;29;20798;-75
2021/09/18 07:28:15;;;;;;;8.63;7.83;;;21.50;97.40;;;;;;4904890;29;20245;-68
2021/09/18 07:30:42;;;;;;;9.87;8.97;;;21.40;98.00;;;;;;4896614;29;20193;-69
2021/09/18 07:33:10;;;;;;;16.77;14.97;;;21.20;97.70;;;;;;4903730;29;20531;-68
2021/09/18 07:35:40;;;;;;;4.27;4.00;;;21.10;98.00;;;;;;4897242;29;20476;-68
2021/09/18 07:38:08;;;;;;;4.47;4.17;;;21.00;98.10;;;;;;4901404;29;20240;-68
2021/09/18 07:40:36;;;;;;;4.97;4.67;;;20.90;98.50;;;;;;4897316;29;20250;-68
2021/09/18 07:43:03;;;;;;;3.10;2.90;;;20.70;98.90;;;;;;4897373;29;20435;-68
2021/09/18 07:45:31;;;;;;;5.50;5.10;;;20.50;99.20;;;;;;4901696;29;20545;-74
2021/09/18 07:47:58;;;;;;;8.47;7.87;;;20.40;99.50;;;;;;4907926;29;20630;-75
2021/09/18 07:50:25;;;;;;;5.63;5.17;;;20.30;99.10;;;;;;4897609;29;20428;-76
2021/09/18 07:52:53;;;;;;;9.83;9.00;;;20.20;99.40;;;;;;4895365;29;21013;-74
2021/09/18 07:55:21;;;;;;;7.07;6.60;;;20.20;99.60;;;;;;4893615;29;20494;-78
2021/09/18 07:57:48;;;;;;;5.60;5.13;;;20.10;99.70;;;;;;4896398;29;20458;-75
2021/09/18 08:00:16;;;;;;;8.10;7.47;;;20.00;99.90;;;;;;4896679;29;20435;-74
2021/09/18 08:02:43;;;;;;;6.77;6.20;;;19.90;99.70;;;;;;4896671;29;20452;-75
2021/09/18 08:05:11;;;;;;;5.60;5.03;;;19.90;99.90;;;;;;4896652;29;20444;-75
2021/09/18 08:07:38;;;;;;;4.37;4.00;;;19.80;99.90;;;;;;4896286;29;20424;-68
2021/09/18 08:10:13;;;;;;;5.60;4.90;;;19.70;99.90;;;;;;4896227;29;20554;-75
2021/09/18 08:12:45;;;;;;;5.40;4.90;;;19.60;99.90;;;;;;4896111;29;20486;-70
2021/09/18 08:15:13;;;;;;;4.63;4.17;;;19.50;99.90;;;;;;4896420;29;20539;-76
2021/09/18 08:17:41;;;;;;;5.97;5.40;;;19.50;99.90;;;;;;4896161;29;20427;-75
2021/09/18 08:20:09;;;;;;;6.43;5.83;;;19.50;99.90;;;;;;4895961;29;20825;-72
2021/09/18 08:22:37;;;;;;;6.27;5.70;;;19.50;99.90;;;;;;4901432;29;20483;-76
2021/09/18 08:25:06;;;;;;;7.17;6.53;;;19.40;99.90;;;;;;4895629;29;20435;-74
2021/09/18 08:27:34;;;;;;;10.00;8.97;;;19.40;99.90;;;;;;4895069;29;20431;-75
2021/09/18 08:30:01;;;;;;;8.53;7.77;;;19.40;99.90;;;;;;4895055;29;20431;-76
2021/09/18 08:32:29;;;;;;;8.47;7.60;;;19.30;99.90;;;;;;4895619;29;20491;-73
2021/09/18 08:34:56;;;;;;;5.40;4.67;;;19.30;99.90;;;;;;4895366;29;20938;-75
2021/09/18 08:37:24;;;;;;;9.10;8.17;;;19.20;99.90;;;;;;4899225;29;20528;-78
2021/09/18 08:39:51;;;;;;;6.43;5.83;;;19.20;99.90;;;;;;4898559;29;20439;-77
2021/09/18 08:42:18;;;;;;;6.00;5.37;;;19.20;99.90;;;;;;4898292;29;20436;-76
2021/09/18 08:44:46;;;;;;;8.17;7.40;;;19.20;99.90;;;;;;4899178;29;20436;-72
2021/09/18 08:47:15;;;;;;;6.20;5.57;;;19.20;99.90;;;;;;4896972;29;20440;-73
2021/09/18 08:49:42;;;;;;;6.10;5.37;;;19.10;99.90;;;;;;4899705;29;20784;-77
2021/09/18 08:52:10;;;;;;;9.13;8.20;;;19.10;99.90;;;;;;4899617;29;20420;-79
2021/09/18 08:54:41;;;;;;;5.33;3.97;;;19.10;99.70;;;;;;4896890;29;20475;-79
2021/09/18 08:57:11;;;;;;;5.43;4.37;;;19.20;99.20;;;;;;4900254;29;20479;-75
2021/09/18 08:59:39;;;;;;;12.17;11.10;;;19.10;98.80;;;;;;4899640;29;20470;-74
2021/09/18 09:02:14;;;;;;;6.40;5.57;;;19.10;98.10;;;;;;4899592;29;20429;-75
2021/09/18 09:04:42;;;;;;;5.83;5.33;;;19.10;97.80;;;;;;4899521;29;20424;-77
2021/09/18 09:07:12;;;;;;;8.37;5.20;;;19.10;97.40;;;;;;4899525;29;20495;-77
2021/09/18 09:09:53;;;;;;;6.67;6.07;;;19.10;97.30;;;;;;4897530;29;20428;-79
2021/09/18 09:12:36;;;;;;;10.73;9.40;;;19.10;96.80;;;;;;4893425;29;20476;-76
2021/09/18 09:15:09;;;;;;;8.83;5.30;;;18.90;96.60;;;;;;4899053;29;20990;-76
2021/09/18 09:17:38;;;;;;;6.90;6.23;;;18.90;96.70;;;;;;4898029;29;20447;-76
2021/09/18 09:20:06;;;;;;;6.27;5.70;;;18.90;96.30;;;;;;4897677;29;20443;-74
2021/09/18 09:22:47;;;;;;;8.93;5.93;;;18.80;96.00;;;;;;4898619;29;20853;-75
2021/09/18 09:25:32;;;;;;;7.93;6.80;;;18.80;95.80;;;;;;4896011;29;20446;-76
2021/09/18 09:28:21;;;;;;;6.53;5.97;;;18.80;95.50;;;;;;4900989;29;20423;-77
2021/09/18 09:30:49;;;;;;;4.83;4.07;;;18.90;95.30;;;;;;4888656;29;20428;-77
2021/09/18 09:33:16;;;;;;;4.90;4.07;;;18.90;94.90;;;;;;4905642;29;20416;-82
2021/09/18 09:35:44;;;;;;;4.87;4.43;;;18.90;95.00;;;;;;4899424;29;20615;-77
2021/09/18 09:38:11;;;;;;;5.60;4.23;;;18.80;95.00;;;;;;4899361;29;20427;-77
2021/09/18 09:40:48;;;;;;;20.07;14.20;;;18.70;95.00;;;;;;4897379;29;20506;-79
2021/09/18 09:43:19;;;;;;;6.53;5.87;;;18.70;95.10;;;;;;4896617;29;20919;-75
2021/09/18 09:45:47;;;;;;;6.90;6.20;;;18.60;95.20;;;;;;4896927;29;20923;-77
2021/09/18 09:48:19;;;;;;;6.93;5.53;;;18.60;95.20;;;;;;4906325;29;20772;-78
2021/09/18 09:51:02;;;;;;;8.03;5.33;;;18.50;95.30;;;;;;4899312;29;20423;-80
2021/09/18 09:53:35;;;;;;;9.47;6.73;;;18.50;95.40;;;;;;4897579;29;20440;-79
2021/09/18 09:56:21;;;;;;;6.87;5.40;;;18.50;95.30;;;;;;4884391;29;20441;-78
2021/09/18 09:58:53;;;;;;;7.70;5.20;;;18.40;95.30;;;;;;4897788;29;20434;-67
2021/09/18 10:01:21;;;;;;;10.43;6.67;;;18.30;95.50;;;;;;4908832;29;20580;-66
2021/09/18 10:03:48;;;;;;;5.93;4.80;;;18.30;95.50;;;;;;4906588;29;20421;-63
2021/09/18 10:06:16;;;;;;;6.37;4.90;;;18.20;95.70;;;;;;4898657;29;20432;-66
2021/09/18 10:08:48;;;;;;;7.27;6.60;;;18.10;95.70;;;;;;4898889;29;20432;-66
2021/09/18 10:11:18;;;;;;;6.53;4.77;;;18.10;96.00;;;;;;4898461;29;20465;-66
2021/09/18 10:13:48;;;;;;;5.77;5.13;;;18.00;96.00;;;;;;4898735;29;20471;-66
2021/09/18 10:16:17;;;;;;;5.23;3.50;;;17.90;96.00;;;;;;4899505;29;20448;-66
2021/09/18 10:18:46;;;;;;;4.73;3.90;;;17.90;96.20;;;;;;4906757;29;20427;-69
2021/09/18 10:23:59;;;;;;;5.73;5.17;;;17.80;96.00;;;;;;4897864;29;20526;-65
2021/09/18 10:26:26;;;;;;;4.57;3.30;;;17.80;95.90;;;;;;4898473;29;20509;-66
2021/09/18 10:28:54;;;;;;;6.47;5.33;;;17.90;95.80;;;;;;4901956;29;20575;-67
2021/09/18 10:31:23;;;;;;;6.17;5.43;;;17.80;95.90;;;;;;4899317;29;20420;-68
2021/09/18 10:33:52;;;;;;;5.83;5.13;;;17.70;96.00;;;;;;4894362;29;20467;-67
2021/09/18 10:36:22;;;;;;;6.43;5.20;;;17.70;96.00;;;;;;4898536;29;20438;-68
2021/09/18 10:39:22;;;;;;;5.57;4.23;;;17.60;96.30;;;;;;4900247;29;20462;-70
2021/09/18 10:41:57;;;;;;;7.40;6.60;;;17.50;96.30;;;;;;4897737;29;20420;-69
2021/09/18 10:44:46;;;;;;;5.20;4.07;;;17.60;96.00;;;;;;4898006;29;20442;-68
2021/09/18 10:47:38;;;;;;;5.50;3.50;;;17.60;96.00;;;;;;4897349;29;20424;-71
2021/09/18 10:50:11;;;;;;;6.70;3.90;;;17.60;95.70;;;;;;4898312;29;20431;-74
2021/09/18 10:52:40;;;;;;;5.97;3.87;;;17.60;95.80;;;;;;4900105;29;20940;-66
2021/09/18 10:55:08;;;;;;;5.43;3.60;;;17.50;95.80;;;;;;4900351;29;20483;-75
2021/09/18 10:57:41;;;;;;;8.67;5.53;;;17.40;96.20;;;;;;4902003;29;20518;-69
2021/09/18 11:00:13;;;;;;;5.17;3.33;;;17.40;96.00;;;;;;4897330;29;20443;-67
2021/09/18 11:02:42;;;;;;;5.87;4.83;;;17.40;96.20;;;;;;4896636;29;20580;-69
2021/09/18 11:05:32;;;;;;;7.60;5.93;;;17.30;96.20;;;;;;4897974;29;20435;-66
2021/09/18 11:08:04;;;;;;;7.73;7.03;;;17.30;96.40;;;;;;4901052;29;20519;-70
2021/09/18 11:10:31;;;;;;;8.13;6.60;;;17.40;96.20;;;;;;4899979;29;20485;-69
2021/09/18 11:13:11;;;;;;;12.50;6.40;;;17.40;96.40;;;;;;4897688;29;20428;-64
2021/09/18 11:15:48;;;;;;;5.67;4.37;;;17.30;96.50;;;;;;4906729;29;20478;-67
2021/09/18 11:18:17;;;;;;;10.30;9.20;;;17.20;96.60;;;;;;4899046;29;20434;-69
2021/09/18 11:20:45;;;;;;;6.90;4.93;;;17.20;96.60;;;;;;4897863;29;20433;-64
2021/09/18 11:23:12;;;;;;;9.07;7.63;;;17.20;96.50;;;;;;4897463;29;20768;-69
2021/09/18 11:25:46;;;;;;;9.53;8.10;;;17.10;96.40;;;;;;4895974;29;20440;-68
2021/09/18 11:28:16;;;;;;;4.30;3.80;;;17.10;96.40;;;;;;4896306;29;20439;-66
2021/09/18 11:30:52;;;;;;;10.00;9.03;;;17.10;96.30;;;;;;4896223;29;20807;-66
2021/09/18 11:33:23;;;;;;;11.37;9.80;;;17.00;96.10;;;;;;4897575;29;20944;-67
2021/09/18 11:35:55;;;;;;;12.60;11.30;;;17.00;96.20;;;;;;4901202;29;20477;-67
2021/09/18 11:38:26;;;;;;;9.67;7.40;;;16.90;96.40;;;;;;4897810;29;20459;-72
2021/09/18 11:41:07;;;;;;;7.23;4.50;;;16.80;96.00;;;;;;4900320;29;20788;-68
2021/09/18 11:43:35;;;;;;;7.13;5.33;;;16.90;95.40;;;;;;4898274;29;20542;-67
2021/09/18 11:46:04;;;;;;;8.87;6.63;;;16.90;95.40;;;;;;4903753;29;20943;-69
2021/09/18 11:48:32;;;;;;;5.23;4.40;;;16.90;95.50;;;;;;4898454;29;20428;-69
2021/09/18 11:51:01;;;;;;;6.50;4.50;;;16.80;94.80;;;;;;4907833;29;20926;-67
2021/09/18 11:53:29;;;;;;;10.67;8.93;;;16.90;94.10;;;;;;4897872;29;20463;-67
2021/09/18 11:55:58;;;;;;;8.27;3.87;;;16.90;93.80;;;;;;4898781;29;20547;-67
2021/09/18 11:58:30;;;;;;;28.33;8.10;;;16.90;93.80;;;;;;4897862;29;20424;-66
2021/09/18 12:01:01;;;;;;;5.60;2.50;;;16.80;93.50;;;;;;4903540;29;20439;-67
2021/09/18 12:03:38;;;;;;;8.27;5.17;;;16.70;93.30;;;;;;4896317;29;20467;-67
2021/09/18 12:06:08;;;;;;;4.90;3.07;;;16.70;92.80;;;;;;4896736;29;20451;-65
2021/09/18 12:08:38;;;;;;;5.50;3.07;;;16.70;92.70;;;;;;4895808;29;20428;-70
2021/09/18 12:11:08;;;;;;;10.67;4.20;;;16.60;92.60;;;;;;4897417;29;20472;-71
2021/09/18 12:13:37;;;;;;;9.50;6.80;;;16.70;92.20;;;;;;4901054;29;20421;-69
2021/09/18 12:16:05;;;;;;;17.33;15.50;;;16.60;92.10;;;;;;4900658;29;20440;-68
2021/09/18 12:18:35;;;;;;;12.17;11.07;;;16.60;91.70;;;;;;4900117;29;20429;-81
2021/09/18 12:21:23;;;;;;;10.20;8.67;;;16.60;91.60;;;;;;4900724;29;20444;-80
2021/09/18 12:24:00;;;;;;;12.73;11.73;;;16.60;91.70;;;;;;4899166;29;20514;-65
2021/09/18 12:26:32;;;;;;;7.53;6.77;;;16.50;91.70;;;;;;4900237;29;20962;-74
2021/09/18 12:29:14;;;;;;;5.27;4.57;;;16.40;91.80;;;;;;4899626;29;20438;-66
2021/09/18 12:31:44;;;;;;;6.57;5.90;;;16.30;91.80;;;;;;4900071;29;20456;-66
2021/09/18 12:34:17;;;;;;;7.40;5.60;;;16.30;91.90;;;;;;4900632;29;20483;-69
2021/09/18 12:36:45;;;;;;;5.90;4.47;;;16.30;91.90;;;;;;4900390;29;20416;-69
2021/09/18 12:39:14;;;;;;;14.77;6.10;;;16.20;91.80;;;;;;4899245;29;20436;-71
2021/09/18 12:41:44;;;;;;;7.73;5.17;;;16.20;91.70;;;;;;4899111;29;20440;-69
2021/09/18 12:44:16;;;;;;;6.37;5.70;;;16.10;91.50;;;;;;4899241;29;20435;-65
2021/09/18 12:46:47;;;;;;;5.33;4.27;;;16.10;91.30;;;;;;4899718;29;20819;-67
2021/09/18 12:49:15;;;;;;;7.27;5.30;;;16.10;91.00;;;;;;4900546;29;20970;-66
2021/09/18 12:51:45;;;;;;;6.17;5.53;;;16.10;91.30;;;;;;4900207;29;20432;-72
2021/09/18 12:54:18;;;;;;;6.57;5.80;;;15.90;91.20;;;;;;4898819;29;20875;-71
2021/09/18 12:56:47;;;;;;;5.43;4.57;;;15.90;90.70;;;;;;4905734;29;20917;-66